This is the latest recevied weather packets stored in our database for station/object DC4XK-10. If no packets are shown the sender has not sent any weather packets the latest 10 day(s).
| Time | Temp. | Humidity | Pressure | Rain* | Wind** | Luminosity | Snow |
|---|---|---|---|---|---|---|---|
| 1777734531 | 26.11° C | 31% | 1012.7 hPa | 0 mm | 0 m/s | - | - |
| 1777733933 | 26.11° C | 31% | 1012.8 hPa | 0 mm | 0 m/s | - | - |
| 1777733331 | 26.11° C | 31% | 1013 hPa | 0 mm | 4.02 m/s, 191° | - | - |
| 1777732731 | 26.11° C | 30% | 1013.3 hPa | 0 mm | 2.68 m/s, 193° | - | - |
| 1777732133 | 27.22° C | 29% | 1013.2 hPa | 0 mm | 0.89 m/s, 335° | - | - |
| 1777731531 | 26.11° C | 29% | 1013.2 hPa | 0 mm | 0.89 m/s, 184° | - | - |
| 1777730931 | 26.67° C | 30% | 1013.4 hPa | 0 mm | 0 m/s | - | - |
| 1777730332 | 26.67° C | 29% | 1013.5 hPa | 0 mm | 1.34 m/s, 173° | - | - |
| 1777729730 | 26.67° C | 27% | 1013.6 hPa | 0 mm | 1.79 m/s, 165° | - | - |
| 1777729131 | 26.67° C | 29% | 1013.8 hPa | 0 mm | 2.24 m/s, 155° | - | - |
| 1777728531 | 26.11° C | 28% | 1013.9 hPa | 0 mm | 1.79 m/s, 230° | - | - |
| 1777727931 | 26.67° C | 29% | 1014 hPa | 0 mm | 0.89 m/s, 187° | - | - |
| 1777727331 | 26.67° C | 28% | 1014.1 hPa | 0 mm | 2.68 m/s, 246° | - | - |
| 1777726732 | 26.67° C | 30% | 1014.3 hPa | 0 mm | 2.68 m/s, 206° | - | - |
| 1777726131 | 26.67° C | 33% | 1014.5 hPa | 0 mm | 1.34 m/s, 189° | - | - |
| 1777725531 | 25.56° C | 33% | 1014.6 hPa | 0 mm | 1.34 m/s, 181° | - | - |
| 1777724931 | 25.56° C | 35% | 1014.4 hPa | 0 mm | 0 m/s | - | - |
| 1777724331 | 25.56° C | 35% | 1015 hPa | 0 mm | 1.79 m/s, 163° | - | - |
| 1777723731 | 25.56° C | 36% | 1014.8 hPa | 0 mm | 0.89 m/s, 215° | - | - |
| 1777723131 | 25° C | 38% | 1014.8 hPa | 0 mm | 0 m/s | - | - |
| 1777722530 | 25° C | 35% | 1015.2 hPa | 0 mm | 1.79 m/s, 215° | - | - |
| 1777721932 | 24.44° C | 34% | 1015.6 hPa | 0 mm | 4.47 m/s, 185° | - | - |
| 1777721331 | 25° C | 35% | 1015.6 hPa | 0 mm | 3.13 m/s, 190° | - | - |
| 1777720731 | 24.44° C | 36% | 1015.6 hPa | 0 mm | 2.24 m/s, 352° | - | - |
| 1777720133 | 23.89° C | 37% | 1015.8 hPa | 0 mm | 3.13 m/s, 236° | - | - |
* Rain latest hour (hover to see other rain measurements)
** Current wind speed in m/s (hover to see current wind gust speed)